createdAt,value
2022-11-20T00:01:33.832Z,19.92
2022-11-20T00:04:01.447Z,19.48
2022-11-20T00:06:29.795Z,18.03
2022-11-20T00:09:00.952Z,17.85
2022-11-20T00:11:30.633Z,19.58
2022-11-20T00:14:00.770Z,18.77
2022-11-20T00:16:32.454Z,18.50
2022-11-20T00:18:59.645Z,19.50
2022-11-20T00:21:29.709Z,17.75
2022-11-20T00:23:58.360Z,18.02
2022-11-20T00:26:28.779Z,17.42
2022-11-20T00:28:59.449Z,19.00
2022-11-20T00:31:27.585Z,18.65
2022-11-20T00:33:55.253Z,19.23
2022-11-20T00:36:26.487Z,18.27
2022-11-20T00:39:00.455Z,19.75
2022-11-20T00:41:30.486Z,18.50
2022-11-20T00:43:58.400Z,18.42
2022-11-20T00:46:29.350Z,17.23
2022-11-20T00:48:57.232Z,18.65
2022-11-20T00:51:28.417Z,18.17
2022-11-20T00:54:01.329Z,18.25
2022-11-20T00:56:29.529Z,17.98
2022-11-20T00:58:56.937Z,17.23
2022-11-20T01:01:27.323Z,17.50
2022-11-20T01:03:57.827Z,18.92
2022-11-20T01:06:44.570Z,19.25
2022-11-20T01:09:15.109Z,18.40
2022-11-20T01:11:46.679Z,20.60
2022-11-20T01:14:19.415Z,21.20
2022-11-20T01:16:52.894Z,21.98
2022-11-20T01:19:24.856Z,22.05
2022-11-20T01:21:55.197Z,25.48
2022-11-20T01:24:23.624Z,25.50
2022-11-20T01:26:52.527Z,24.88
2022-11-20T01:29:25.320Z,28.73
2022-11-20T01:31:53.790Z,26.55
2022-11-20T01:34:23.522Z,24.73
2022-11-20T01:36:53.966Z,26.40
2022-11-20T01:39:25.625Z,24.90
2022-11-20T01:42:13.460Z,23.30
2022-11-20T01:45:00.946Z,23.30
2022-11-20T01:47:45.916Z,24.42
2022-11-20T01:50:29.980Z,21.77
2022-11-20T01:53:08.261Z,19.35
2022-11-20T01:55:44.570Z,19.88
2022-11-20T01:58:12.852Z,19.67
2022-11-20T02:00:41.232Z,20.23
2022-11-20T02:06:49.116Z,18.08
2022-11-20T02:09:16.782Z,18.40
2022-11-20T02:11:44.465Z,20.50
2022-11-20T02:14:12.561Z,18.65
2022-11-20T02:16:46.751Z,19.60
2022-11-20T02:19:34.817Z,20.17
2022-11-20T02:22:31.558Z,18.65
2022-11-20T02:25:03.355Z,19.00
2022-11-20T02:27:31.169Z,19.48
2022-11-20T02:30:06.578Z,18.17
2022-11-20T02:32:37.065Z,19.20
2022-11-20T02:35:19.514Z,19.77
2022-11-20T02:37:51.362Z,20.13
2022-11-20T02:40:18.902Z,19.90
2022-11-20T02:42:46.135Z,20.17
2022-11-20T02:45:13.465Z,20.63
2022-11-20T02:47:40.728Z,22.75
2022-11-20T02:50:08.305Z,20.73
2022-11-20T02:52:35.575Z,20.42
2022-11-20T02:55:03.236Z,21.25
2022-11-20T02:57:30.510Z,20.98
2022-11-20T02:59:57.935Z,20.67
2022-11-20T03:02:25.134Z,22.80
2022-11-20T03:04:52.354Z,22.58
2022-11-20T03:07:19.772Z,22.30
2022-11-20T03:09:47.302Z,22.27
2022-11-20T03:12:15.203Z,25.13
2022-11-20T03:14:42.346Z,24.83
2022-11-20T03:17:09.607Z,24.70
2022-11-20T03:19:37.118Z,23.53
2022-11-20T03:22:04.491Z,23.67
2022-11-20T03:24:31.773Z,23.20
2022-11-20T03:26:59.461Z,24.42
2022-11-20T03:29:27.177Z,25.08
2022-11-20T03:31:54.418Z,24.80
2022-11-20T03:34:21.798Z,23.90
2022-11-20T03:36:49.100Z,24.30
2022-11-20T03:39:16.713Z,23.20
2022-11-20T03:41:44.515Z,24.97
2022-11-20T03:44:12.895Z,24.25
2022-11-20T03:49:08.017Z,22.58
2022-11-20T03:51:37.267Z,22.77
2022-11-20T03:54:09.072Z,24.40
2022-11-20T03:56:39.461Z,23.77
2022-11-20T03:59:07.839Z,24.70
2022-11-20T04:04:06.959Z,21.70
2022-11-20T04:06:39.299Z,24.20
2022-11-20T04:09:07.560Z,23.35
2022-11-20T04:11:38.079Z,23.60
2022-11-20T04:14:12.962Z,23.55
2022-11-20T04:16:40.164Z,24.13
2022-11-20T04:19:13.354Z,22.90
2022-11-20T04:21:41.056Z,25.08
2022-11-20T04:24:09.301Z,25.70
2022-11-20T04:26:36.561Z,24.83
2022-11-20T04:29:04.724Z,23.97
2022-11-20T04:31:35.680Z,25.55
2022-11-20T04:34:05.906Z,25.08
2022-11-20T04:36:34.486Z,25.58
2022-11-20T04:39:05.767Z,26.27
2022-11-20T04:41:37.041Z,28.40
2022-11-20T04:44:06.653Z,29.23
2022-11-20T04:46:43.596Z,32.80
2022-11-20T04:49:12.965Z,29.80
2022-11-20T04:51:40.530Z,33.88
2022-11-20T04:54:07.716Z,32.80
2022-11-20T04:56:35.021Z,34.45
2022-11-20T04:59:03.820Z,30.50
2022-11-20T05:01:31.853Z,32.75
2022-11-20T05:03:59.174Z,31.35
2022-11-20T05:06:26.541Z,32.63
2022-11-20T05:08:53.702Z,33.38
2022-11-20T05:11:22.513Z,33.00
2022-11-20T05:13:52.269Z,31.90
2022-11-20T05:16:23.700Z,32.08
2022-11-20T05:18:53.837Z,31.35
2022-11-20T05:21:22.326Z,29.10
2022-11-20T05:26:22.972Z,28.42
2022-11-20T05:28:51.562Z,27.33
2022-11-20T05:31:27.823Z,27.02
2022-11-20T05:33:58.032Z,27.45
2022-11-20T05:36:25.600Z,26.35
2022-11-20T05:38:56.723Z,26.92
2022-11-20T05:41:27.237Z,26.10
2022-11-20T05:43:54.464Z,28.98
2022-11-20T05:46:28.132Z,30.13
2022-11-20T05:48:56.795Z,25.63
2022-11-20T05:51:24.771Z,26.05
2022-11-20T05:53:51.982Z,27.38
2022-11-20T05:56:22.150Z,26.90
2022-11-20T05:58:50.739Z,25.85
2022-11-20T06:01:24.689Z,28.00
2022-11-20T06:03:54.253Z,26.65
2022-11-20T06:06:22.461Z,25.10
2022-11-20T06:08:51.305Z,24.92
2022-11-20T06:11:19.319Z,27.88
2022-11-20T06:13:47.724Z,26.27
2022-11-20T06:16:19.867Z,27.88
2022-11-20T06:18:47.882Z,25.48
2022-11-20T06:21:21.928Z,24.30
2022-11-20T06:23:51.336Z,28.23
2022-11-20T06:26:25.817Z,26.55
2022-11-20T06:28:54.471Z,28.45
2022-11-20T06:31:25.572Z,26.83
2022-11-20T06:33:54.105Z,25.45
2022-11-20T06:38:51.884Z,24.98
2022-11-20T06:41:23.494Z,25.95
2022-11-20T06:43:51.394Z,26.45
2022-11-20T06:46:20.590Z,25.60
2022-11-20T06:48:50.085Z,26.25
2022-11-20T06:51:17.937Z,27.00
2022-11-20T06:53:45.260Z,27.05
2022-11-20T06:56:12.486Z,26.07
2022-11-20T06:58:39.997Z,27.95
2022-11-20T07:01:14.657Z,27.13
2022-11-20T07:03:43.751Z,27.70
2022-11-20T07:06:11.958Z,29.30
2022-11-20T07:08:39.253Z,28.30
2022-11-20T07:11:09.082Z,28.42
2022-11-20T07:13:36.558Z,30.35
2022-11-20T07:16:07.540Z,27.20
2022-11-20T07:18:35.457Z,21.42
2022-11-20T07:21:06.195Z,23.33
2022-11-20T07:23:33.394Z,20.08
2022-11-20T07:26:09.777Z,19.02
2022-11-20T07:28:37.884Z,19.42
2022-11-20T07:31:06.056Z,20.58
2022-11-20T07:33:33.542Z,19.63
2022-11-20T07:36:02.191Z,18.15
2022-11-20T07:38:30.096Z,18.55
2022-11-20T07:41:02.657Z,18.83
2022-11-20T07:43:30.921Z,18.80
2022-11-20T07:45:59.642Z,18.83
2022-11-20T07:48:27.378Z,18.50
2022-11-20T07:50:56.963Z,18.20
2022-11-20T07:53:27.192Z,18.73
2022-11-20T07:55:54.768Z,20.10
2022-11-20T07:58:22.781Z,18.25
2022-11-20T08:00:50.409Z,18.73
2022-11-20T08:03:24.076Z,19.60
2022-11-20T08:05:51.509Z,19.42
2022-11-20T08:08:18.998Z,17.98
2022-11-20T08:10:46.514Z,18.20
2022-11-20T08:13:32.164Z,19.03
2022-11-20T08:15:59.347Z,18.73
2022-11-20T08:18:31.625Z,18.08
2022-11-20T08:21:05.125Z,19.25
2022-11-20T08:23:32.540Z,18.20
2022-11-20T08:25:59.881Z,17.57
2022-11-20T08:28:27.155Z,18.57
2022-11-20T08:31:04.902Z,18.45
2022-11-20T08:33:33.778Z,18.58
2022-11-20T08:36:03.490Z,18.35
2022-11-20T08:38:31.621Z,19.00
2022-11-20T08:41:23.487Z,17.63
2022-11-20T08:43:53.071Z,18.63
2022-11-20T08:46:21.114Z,20.45
2022-11-20T08:48:48.940Z,20.02
2022-11-20T08:51:17.256Z,21.58
2022-11-20T08:53:44.731Z,22.20
2022-11-20T08:56:12.372Z,22.38
2022-11-20T08:59:09.912Z,22.35
2022-11-20T09:01:29.262Z,21.92
2022-11-20T09:03:58.364Z,24.05
2022-11-20T09:06:25.852Z,23.65
2022-11-20T09:08:55.189Z,22.03
2022-11-20T09:11:23.136Z,22.83
2022-11-20T09:13:50.771Z,23.38
2022-11-20T09:16:18.062Z,23.73
2022-11-20T09:18:45.368Z,22.50
2022-11-20T09:21:15.281Z,22.77
2022-11-20T09:23:42.681Z,23.00
2022-11-20T09:26:14.926Z,23.80
2022-11-20T09:28:42.748Z,25.52
2022-11-20T09:31:24.057Z,24.38
2022-11-20T09:33:51.764Z,23.90
2022-11-20T09:36:19.749Z,24.73
2022-11-20T09:38:47.775Z,25.17
2022-11-20T09:41:39.126Z,25.27
2022-11-20T09:44:29.856Z,24.30
2022-11-20T09:47:11.126Z,24.88
2022-11-20T09:50:44.426Z,25.02
2022-11-20T09:53:51.717Z,25.05
2022-11-20T09:56:22.829Z,23.30
2022-11-20T09:58:56.365Z,22.77
2022-11-20T10:01:32.684Z,22.83
2022-11-20T10:04:04.111Z,23.42
2022-11-20T10:07:30.383Z,24.98
2022-11-20T10:09:55.926Z,23.20
2022-11-20T10:12:25.851Z,24.10
2022-11-20T10:15:03.487Z,24.40
2022-11-20T10:17:58.642Z,25.67
2022-11-20T10:20:59.619Z,23.30
2022-11-20T10:23:57.271Z,24.73
2022-11-20T10:26:40.385Z,24.30
2022-11-20T10:29:23.311Z,27.23
2022-11-20T10:32:00.888Z,25.15
2022-11-20T10:35:01.952Z,26.02
2022-11-20T10:37:34.163Z,26.00
2022-11-20T10:40:49.027Z,42.97
2022-11-20T10:43:34.252Z,31.73
2022-11-20T10:46:22.745Z,27.90
2022-11-20T10:48:51.178Z,27.98
2022-11-20T10:54:40.203Z,28.25
2022-11-20T10:58:04.254Z,27.13
2022-11-20T11:00:34.684Z,27.75
2022-11-20T11:03:05.173Z,27.05
2022-11-20T11:05:56.500Z,25.90
2022-11-20T11:08:29.357Z,27.10
2022-11-20T11:11:02.500Z,28.90
2022-11-20T11:13:32.911Z,28.27
2022-11-20T11:16:00.285Z,27.17
2022-11-20T11:18:37.370Z,27.83
2022-11-20T11:21:06.369Z,26.30
2022-11-20T11:23:42.334Z,27.30
2022-11-20T11:26:25.923Z,27.70
2022-11-20T11:29:01.909Z,26.08
2022-11-20T11:31:34.929Z,27.00
2022-11-20T11:34:17.217Z,26.98
2022-11-20T11:36:58.445Z,26.30
2022-11-20T11:39:29.601Z,26.33
2022-11-20T11:41:59.237Z,25.80
2022-11-20T11:44:54.410Z,24.85
2022-11-20T11:47:32.966Z,26.27
2022-11-20T11:50:23.367Z,25.80
2022-11-20T11:53:20.619Z,24.33
2022-11-20T11:56:14.598Z,24.00
2022-11-20T11:58:47.838Z,25.77
2022-11-20T12:01:39.938Z,24.83
2022-11-20T12:04:18.365Z,26.77
2022-11-20T12:06:54.650Z,25.27
2022-11-20T12:09:35.598Z,25.38
2022-11-20T12:12:31.148Z,25.70
2022-11-20T12:14:59.639Z,24.15
2022-11-20T12:17:26.938Z,24.70
2022-11-20T12:19:54.291Z,24.25
2022-11-20T12:22:41.770Z,23.75
2022-11-20T12:25:26.481Z,23.33
2022-11-20T12:28:18.485Z,26.00
2022-11-20T12:31:14.771Z,27.17
2022-11-20T12:33:53.702Z,26.40
2022-11-20T12:37:08.895Z,26.20
2022-11-20T12:39:42.584Z,25.58
2022-11-20T12:43:02.852Z,25.58
2022-11-20T12:46:07.247Z,27.77
2022-11-20T12:48:54.182Z,26.45
2022-11-20T12:51:34.253Z,26.45
2022-11-20T12:54:47.183Z,26.88
2022-11-20T12:57:35.975Z,24.50
2022-11-20T13:00:17.314Z,24.52
2022-11-20T13:03:33.003Z,24.10
2022-11-20T13:06:18.794Z,24.48
2022-11-20T13:09:12.118Z,25.05
2022-11-20T13:12:03.164Z,25.20
2022-11-20T13:14:38.726Z,24.52
2022-11-20T13:17:36.988Z,24.92
2022-11-20T13:20:13.507Z,24.52
2022-11-20T13:22:53.215Z,25.60
2022-11-20T13:25:36.129Z,25.63
2022-11-20T13:28:12.390Z,23.90
2022-11-20T13:30:53.899Z,25.02
2022-11-20T13:33:31.683Z,25.63
2022-11-20T13:36:07.700Z,24.58
2022-11-20T13:39:04.445Z,25.30
2022-11-20T13:41:38.913Z,24.90
2022-11-20T13:44:42.743Z,23.80
2022-11-20T13:47:25.021Z,24.98
2022-11-20T13:49:55.962Z,23.15
2022-11-20T13:52:32.185Z,23.52
2022-11-20T13:55:26.558Z,22.98
2022-11-20T13:58:20.431Z,23.20
2022-11-20T14:00:58.910Z,23.98
2022-11-20T14:04:04.447Z,24.55
2022-11-20T14:06:44.261Z,22.08
2022-11-20T14:09:29.338Z,21.70
2022-11-20T14:11:56.900Z,22.23
2022-11-20T14:14:30.549Z,21.80
2022-11-20T14:17:30.163Z,22.00
2022-11-20T14:20:07.758Z,23.83
2022-11-20T14:22:34.991Z,24.17
2022-11-20T14:25:17.512Z,24.77
2022-11-20T14:27:52.310Z,23.27
2022-11-20T14:30:46.318Z,21.77
2022-11-20T14:33:15.837Z,21.90
2022-11-20T14:35:53.437Z,22.50
2022-11-20T14:38:27.878Z,26.30
2022-11-20T14:40:55.299Z,24.58
2022-11-20T14:43:29.858Z,23.48
2022-11-20T14:46:11.110Z,23.40
2022-11-20T14:48:57.358Z,22.13
2022-11-20T14:51:42.656Z,24.65
2022-11-20T14:54:23.703Z,23.05
2022-11-20T14:57:02.761Z,24.25
2022-11-20T14:59:33.889Z,26.60
2022-11-20T15:02:12.905Z,24.73
2022-11-20T15:05:00.650Z,22.45
2022-11-20T15:07:38.990Z,24.95
2022-11-20T15:10:13.063Z,26.02
2022-11-20T15:12:48.723Z,24.10
2022-11-20T15:15:51.017Z,24.73
2022-11-20T15:18:29.569Z,24.77
2022-11-20T15:20:59.945Z,24.15
2022-11-20T15:23:28.892Z,25.67
2022-11-20T15:25:57.088Z,24.23
2022-11-20T15:28:38.177Z,25.10
2022-11-20T15:31:05.861Z,26.85
2022-11-20T15:33:34.870Z,25.60
2022-11-20T15:36:02.492Z,25.05
2022-11-20T15:38:29.846Z,26.23
2022-11-20T15:40:57.729Z,26.80
2022-11-20T15:43:25.549Z,26.88
2022-11-20T15:46:00.218Z,27.73
2022-11-20T15:48:30.757Z,26.88
2022-11-20T15:51:13.860Z,26.42
2022-11-20T15:53:42.780Z,27.60
2022-11-20T15:56:15.230Z,27.45
2022-11-20T15:58:42.872Z,26.20
2022-11-20T16:01:14.270Z,30.67
2022-11-20T16:03:42.335Z,28.88
2022-11-20T16:06:09.871Z,28.45
2022-11-20T16:08:37.093Z,30.42
2022-11-20T16:11:05.366Z,28.55
2022-11-20T16:16:33.361Z,29.77
2022-11-20T16:19:01.379Z,29.65
2022-11-20T16:21:32.371Z,34.70
2022-11-20T16:24:06.800Z,33.10
2022-11-20T16:26:35.179Z,33.80
2022-11-20T16:31:31.463Z,31.13
2022-11-20T16:34:05.871Z,34.03
2022-11-20T16:36:40.695Z,30.63
2022-11-20T16:39:09.676Z,32.72
2022-11-20T16:41:37.406Z,33.15
2022-11-20T16:44:10.734Z,29.27
2022-11-20T16:46:39.003Z,30.98
2022-11-20T16:49:12.610Z,33.35
2022-11-20T16:51:40.143Z,31.83
2022-11-20T16:54:09.782Z,32.95
2022-11-20T16:56:38.137Z,30.50
2022-11-20T16:59:05.811Z,32.25
2022-11-20T17:01:34.285Z,34.53
2022-11-20T17:04:07.459Z,32.35
2022-11-20T17:06:41.086Z,31.13
2022-11-20T17:09:09.712Z,31.48
2022-11-20T17:11:37.490Z,28.13
2022-11-20T17:14:07.587Z,28.88
2022-11-20T17:16:37.098Z,28.70
2022-11-20T17:19:05.528Z,30.02
2022-11-20T17:21:36.656Z,28.48
2022-11-20T17:24:11.272Z,28.92
2022-11-20T17:26:41.088Z,27.17
2022-11-20T17:29:15.815Z,28.10
2022-11-20T17:31:44.699Z,29.83
2022-11-20T17:34:15.827Z,30.52
2022-11-20T17:36:47.461Z,29.50
2022-11-20T17:39:17.553Z,29.92
2022-11-20T17:41:45.376Z,31.50
2022-11-20T17:44:13.615Z,29.77
2022-11-20T17:46:41.207Z,30.48
2022-11-20T17:49:08.844Z,29.83
2022-11-20T17:51:36.393Z,30.90
2022-11-20T17:54:07.632Z,32.08
2022-11-20T17:56:54.194Z,32.35
2022-11-20T17:59:22.767Z,31.63
2022-11-20T18:01:50.580Z,31.30
2022-11-20T18:04:18.230Z,32.13
2022-11-20T18:06:45.768Z,34.75
2022-11-20T18:09:13.119Z,32.10
2022-11-20T18:11:42.849Z,29.37
2022-11-20T18:14:34.885Z,31.00
2022-11-20T18:17:12.343Z,31.48
2022-11-20T18:20:07.211Z,30.20
2022-11-20T18:22:35.087Z,29.98
2022-11-20T18:25:03.217Z,31.55
2022-11-20T18:27:30.527Z,31.80
2022-11-20T18:29:57.813Z,31.50
2022-11-20T18:32:25.322Z,31.73
2022-11-20T18:34:52.924Z,30.55
2022-11-20T18:37:20.582Z,32.63
2022-11-20T18:39:49.687Z,32.50
2022-11-20T18:42:36.178Z,32.03
2022-11-20T18:45:05.159Z,32.70
2022-11-20T18:47:38.115Z,33.85
2022-11-20T18:50:08.608Z,35.83
2022-11-20T18:52:44.805Z,35.95
2022-11-20T18:55:13.106Z,33.47
2022-11-20T18:57:43.604Z,35.15
2022-11-20T19:00:15.654Z,35.88
2022-11-20T19:02:43.799Z,35.47
2022-11-20T19:05:16.442Z,37.35
2022-11-20T19:07:47.145Z,37.28
2022-11-20T19:10:14.709Z,36.15
2022-11-20T19:12:41.941Z,39.43
2022-11-20T19:15:09.692Z,37.33
2022-11-20T19:17:37.190Z,39.17
2022-11-20T19:20:05.279Z,39.38
2022-11-20T19:22:32.688Z,39.10
2022-11-20T19:25:00.161Z,40.28
2022-11-20T19:27:27.512Z,37.77
2022-11-20T19:29:58.888Z,36.58
2022-11-20T19:32:26.450Z,36.08
2022-11-20T19:34:53.677Z,36.00
2022-11-20T19:37:21.073Z,27.35
2022-11-20T19:39:48.488Z,27.60
2022-11-20T19:42:16.550Z,36.63
2022-11-20T19:44:43.914Z,37.83
2022-11-20T19:47:14.407Z,33.83
2022-11-20T19:49:42.433Z,33.05
2022-11-20T19:52:09.742Z,33.25
2022-11-20T19:54:37.097Z,35.17
2022-11-20T19:57:04.413Z,33.67
2022-11-20T19:59:31.865Z,33.38
2022-11-20T20:01:59.168Z,34.57
2022-11-20T20:04:27.250Z,33.13
2022-11-20T20:06:54.917Z,31.60
2022-11-20T20:09:24.752Z,34.73
2022-11-20T20:11:52.353Z,35.08
2022-11-20T20:14:20.137Z,35.65
2022-11-20T20:16:47.596Z,34.63
2022-11-20T20:19:16.741Z,35.63
2022-11-20T20:21:44.698Z,36.30
2022-11-20T20:24:12.559Z,35.38
2022-11-20T20:26:40.799Z,38.88
2022-11-20T20:29:08.175Z,34.33
2022-11-20T20:31:35.947Z,37.63
2022-11-20T20:34:05.436Z,38.08
2022-11-20T20:36:33.438Z,36.80
2022-11-20T20:39:02.806Z,35.80
2022-11-20T20:41:30.938Z,36.13
2022-11-20T20:44:17.120Z,35.67
2022-11-20T20:46:44.381Z,35.88
2022-11-20T20:49:12.519Z,34.13
2022-11-20T20:51:39.965Z,34.63
2022-11-20T20:54:07.279Z,35.43
2022-11-20T20:56:34.592Z,36.10
2022-11-20T20:59:03.276Z,35.97
2022-11-20T21:01:30.894Z,35.03
2022-11-20T21:03:58.724Z,37.73
2022-11-20T21:06:26.907Z,39.10
2022-11-20T21:08:56.019Z,38.78
2022-11-20T21:11:23.566Z,37.58
2022-11-20T21:13:50.893Z,36.72
2022-11-20T21:16:23.717Z,37.63
2022-11-20T21:18:51.238Z,35.42
2022-11-20T21:21:37.279Z,34.40
2022-11-20T21:24:05.180Z,35.15
2022-11-20T21:26:32.608Z,35.63
2022-11-20T21:28:59.872Z,36.42
2022-11-20T21:31:28.735Z,33.88
2022-11-20T21:33:57.307Z,36.25
2022-11-20T21:36:28.146Z,35.10
2022-11-20T21:38:57.761Z,38.83
2022-11-20T21:41:28.075Z,36.90
2022-11-20T21:46:46.557Z,35.75
2022-11-20T21:49:15.332Z,36.45
2022-11-20T21:51:42.588Z,36.45
2022-11-20T21:54:11.761Z,36.05
2022-11-20T21:56:39.285Z,34.92
2022-11-20T21:59:06.499Z,37.38
2022-11-20T22:01:33.935Z,36.65
2022-11-20T22:04:02.936Z,36.53
2022-11-20T22:06:33.562Z,36.05
2022-11-20T22:09:03.251Z,35.80
2022-11-20T22:11:30.752Z,38.15
2022-11-20T22:14:17.453Z,35.03
2022-11-20T22:16:45.834Z,36.92
2022-11-20T22:19:17.236Z,36.05
2022-11-20T22:21:45.266Z,36.80
2022-11-20T22:24:15.491Z,36.05
2022-11-20T22:26:43.643Z,37.90
2022-11-20T22:29:20.947Z,35.45
2022-11-20T22:31:51.020Z,37.35
2022-11-20T22:34:18.187Z,36.92
2022-11-20T22:36:45.789Z,36.50
2022-11-20T22:39:13.190Z,36.78
2022-11-20T22:41:40.598Z,36.73
2022-11-20T22:44:09.175Z,34.92
2022-11-20T22:46:38.322Z,35.72
2022-11-20T22:49:08.827Z,37.72
2022-11-20T22:51:39.916Z,35.17
2022-11-20T22:54:08.107Z,37.67
2022-11-20T22:56:35.658Z,36.90
2022-11-20T22:59:03.946Z,39.35
2022-11-20T23:01:34.463Z,36.05
2022-11-20T23:04:12.131Z,38.25
2022-11-20T23:06:40.534Z,37.90
2022-11-20T23:09:09.727Z,39.05
2022-11-20T23:11:37.305Z,37.80
2022-11-20T23:14:08.576Z,37.35
2022-11-20T23:16:36.015Z,36.17
2022-11-20T23:19:08.572Z,35.17
2022-11-20T23:21:38.486Z,36.00
2022-11-20T23:24:06.926Z,36.28
2022-11-20T23:29:06.918Z,35.35
2022-11-20T23:31:36.209Z,35.25
2022-11-20T23:34:04.773Z,37.70
2022-11-20T23:36:32.690Z,35.45
2022-11-20T23:39:00.068Z,35.60
2022-11-20T23:41:27.402Z,36.20
2022-11-20T23:43:54.812Z,33.50
2022-11-20T23:46:22.382Z,35.73
2022-11-20T23:48:49.856Z,35.60
2022-11-20T23:51:18.055Z,35.40
2022-11-20T23:53:45.394Z,35.10
2022-11-20T23:56:14.843Z,33.08
2022-11-20T23:58:43.298Z,34.72
